Latest Weather Observations for Armidale Airport

IDN60801

Issued at 1:33 pm EDT Thursday 20 January 2022 (issued every 10 minutes, with the page automatically refreshed every 10 minutes)

About weather observations | Map of weather stations | Latest weather observations for NSW | Other Formats
Station Details ID: 056238 Name: ARMIDALE AIRPORT AWS Lat: -30.53 Lon: 151.62 Height: 1079.0 m
Data from the previous 72 hours. | See also: Recent months at Armidale Airport
Date/Time
EDT
Temp
°C
App
Temp
°C
Dew
Point
°C
Rel
Hum
%
Delta-T
°C
Wind Press
QNH
hPa
Press
MSL
hPa
Rain since
9am
mm
Dir  Spd
km/h
Gust
km/h
Spd
kts
Gust
kts
20/01:30pm 17.1 13.4 15.1 88 1.2 ESE 28 39 15 21 1024.7 1018.7 0.0
20/01:00pm 18.3 15.4 17.0 92 0.8 ESE 28 39 15 21 1024.7 1018.7 0.0
20/12:30pm 17.3 13.9 15.8 91 0.9 SE 28 39 15 21 1025.0 1019.0 0.0
20/12:00pm 17.7 15.0 16.7 94 0.6 ESE 26 39 14 21 1025.1 1019.2 0.0
20/11:56am 16.8 13.4 15.7 93 0.7 ESE 28 39 15 21 1025.2 1019.3 0.0
20/11:30am 16.1 12.2 15.5 96 0.4 ESE 30 43 16 23 1025.0 1019.0 0.0
20/11:09am 15.6 11.7 15.4 99 0.1 ESE 30 43 16 23 1025.0 1019.0 0.0
20/11:04am 15.7 11.9 15.7 100 0.0 ESE 30 43 16 23 1025.0 1019.0 0.0
20/11:00am 14.9 10.7 14.7 99 0.1 ESE 30 43 16 23 1024.9 1018.9 0.0
20/10:50am 14.4 9.5 14.2 99 0.1 ESE 33 52 18 28 1024.8 1018.8 0.0
20/10:30am 15.0 10.9 14.8 99 0.1 SE 30 43 16 23 1024.5 1018.5 0.0
20/10:00am 15.6 11.3 15.4 99 0.1 ESE 32 46 17 25 1024.1 1018.1 0.0
20/09:30am 15.1 11.4 14.9 99 0.1 ESE 28 43 15 23 1023.9 1017.9 0.0
20/09:08am 15.4 11.0 15.2 99 0.1 ESE 32 50 17 27 1023.7 1017.7 0.0
20/09:04am 15.4 10.8 15.2 99 0.1 ESE 33 46 18 25 1023.6 1017.6 0.0
20/09:00am 15.3 10.7 15.1 99 0.1 ESE 33 46 18 25 1023.6 1017.6 7.6
20/08:30am 15.2 10.6 15.0 99 0.1 ESE 33 50 18 27 1023.1 1017.1 7.6
20/08:00am 14.8 11.0 14.6 99 0.1 ESE 28 43 15 23 1022.9 1016.9 7.6
20/07:30am 14.3 10.3 14.1 99 0.1 ESE 28 46 15 25 1022.5 1016.4 7.6
20/07:29am 14.3 10.3 14.1 99 0.1 ESE 28 46 15 25 1022.5 1016.4 7.6
20/07:00am 14.1 10.4 13.9 99 0.1 ESE 26 37 14 20 1022.4 1016.3 7.6
20/06:30am 13.9 10.2 13.9 100 0.0 ESE 26 39 14 21 1022.4 1016.3 7.6
20/06:00am 13.8 10.1 13.8 100 0.0 ESE 26 39 14 21 1022.1 1016.1 7.6
20/05:30am 14.0 10.3 14.0 100 0.0 ESE 26 35 14 19 1021.6 1015.5 7.6
20/05:00am 14.1 10.8 14.1 100 0.0 ESE 24 37 13 20 1021.4 1015.3 7.6
20/04:30am 14.3 11.8 14.1 99 0.1 SE 20 33 11 18 1021.1 1015.1 7.6
20/04:00am 14.4 10.9 14.4 100 0.0 ESE 26 39 14 21 1020.8 1014.7 7.6
20/03:30am 14.3 11.1 14.3 100 0.0 ESE 24 35 13 19 1020.9 1014.9 7.6
20/03:00am 14.4 11.3 14.4 100 0.0 ESE 24 33 13 18 1021.0 1015.0 7.6
20/02:30am 14.4 11.3 14.4 100 0.0 ESE 24 35 13 19 1021.3 1015.2 7.6
20/02:00am 14.6 11.5 14.4 99 0.1 ESE 24 35 13 19 1021.5 1015.4 7.6
20/01:30am 14.8 11.4 14.8 100 0.0 ESE 26 37 14 20 1021.6 1015.5 7.6
20/01:00am 14.8 11.4 14.8 100 0.0 ESE 26 35 14 19 1021.5 1015.4 7.6
20/12:30am 14.8 11.0 14.8 100 0.0 ESE 28 39 15 21 1021.7 1015.6 7.4
20/12:00am 14.8 11.4 14.8 100 0.0 ESE 26 41 14 22 1021.8 1015.8 7.4
 
Date/Time
EDT
Temp
°C
App
Temp
°C
Dew
Point
°C
Rel
Hum
%
Delta-T
°C
Wind Press
QNH
hPa
Press
MSL
hPa
Rain since
9am
mm
Dir  Spd
km/h
Gust
km/h
Spd
kts
Gust
kts
19/11:30pm 14.7 11.3 14.7 100 0.0 ESE 26 35 14 19 1021.8 1015.8 7.2
19/11:00pm 14.7 11.7 14.7 100 0.0 ESE 24 33 13 18 1021.7 1015.6 7.0
19/10:30pm 14.7 10.5 14.7 100 0.0 ESE 30 43 16 23 1021.5 1015.4 6.8
19/10:00pm 14.7 11.7 14.7 100 0.0 ESE 24 33 13 18 1021.5 1015.4 6.8
19/09:30pm 14.6 11.5 14.6 100 0.0 ESE 24 37 13 20 1021.3 1015.2 6.8
19/09:00pm 14.7 10.8 14.5 99 0.1 ESE 28 37 15 20 1021.3 1015.2 6.6
19/08:30pm 14.7 11.2 14.5 99 0.1 ESE 26 33 14 18 1020.8 1014.7 6.6
19/08:00pm 14.7 11.2 14.5 99 0.1 ESE 26 37 14 20 1020.6 1014.5 6.6
19/07:30pm 15.1 11.4 14.9 99 0.1 ESE 28 39 15 21 1020.5 1014.4 6.6
19/07:14pm 15.5 11.9 15.3 99 0.1 ESE 28 43 15 23 1020.6 1014.5 6.6
19/07:00pm 15.7 11.2 15.5 99 0.1 ESE 33 48 18 26 1020.1 1014.1 6.6
19/06:51pm 15.8 11.4 15.6 99 0.1 ESE 33 48 18 26 1019.8 1013.7 6.6
19/06:30pm 16.0 12.6 15.8 99 0.1 ESE 28 46 15 25 1019.5 1013.4 6.6
19/06:29pm 16.1 12.7 15.9 99 0.1 ESE 28 46 15 25 1019.5 1013.4 6.6
19/06:00pm 16.2 13.7 16.2 100 0.0 ESE 24 35 13 19 1019.4 1013.3 6.4
19/05:30pm 16.2 12.9 16.0 99 0.1 ESE 28 37 15 20 1019.3 1013.2 6.4
19/05:00pm 16.7 14.3 16.5 99 0.1 ESE 24 33 13 18 1019.3 1013.2 6.4
19/04:53pm 16.7 14.7 16.5 99 0.1 ESE 22 32 12 17 1019.4 1013.3 6.2
19/04:51pm 16.7 15.1 16.5 99 0.1 ESE 20 30 11 16 1019.4 1013.3 6.2
19/04:41pm 16.9 15.4 16.7 99 0.1 ESE 20 30 11 16 1019.4 1013.3 6.2
19/04:30pm 17.0 14.8 16.8 99 0.1 ESE 24 33 13 18 1019.5 1013.4 6.0
19/04:20pm 17.0 14.8 16.8 99 0.1 ESE 24 33 13 18 1019.5 1013.4 6.0
19/04:10pm 17.4 16.6 17.2 99 0.1 ESE 17 28 9 15 1019.5 1013.4 6.0
19/04:00pm 17.5 15.8 17.3 99 0.1 SE 22 32 12 17 1019.5 1013.4 6.0
19/03:30pm 17.1 15.7 17.1 100 0.0 SE 20 32 11 17 1019.5 1013.4 6.0
19/03:12pm 16.9 13.9 16.9 100 0.0 SE 28 41 15 22 1019.5 1013.4 6.0
19/03:10pm 16.9 13.9 16.9 100 0.0 SE 28 46 15 25 1019.5 1013.4 6.0
19/03:03pm 16.8 13.8 16.8 100 0.0 SSE 28 46 15 25 1019.5 1013.4 6.0
19/03:00pm 16.9 14.3 16.9 100 0.0 SSE 26 37 14 20 1019.5 1013.4 5.8
19/02:46pm 17.4 16.2 17.4 100 0.0 SSE 20 32 11 17 1019.4 1013.3 5.4
19/02:30pm 18.1 17.2 18.1 100 0.0 SE 20 30 11 16 1019.3 1013.2 5.0
19/02:00pm 18.0 18.0 18.0 100 0.0 SE 15 22 8 12 1019.4 1013.3 5.0
19/01:44pm 17.8 16.9 17.8 100 0.0 SE 19 26 10 14 1019.3 1013.2 4.8
19/01:42pm 17.8 17.3 17.8 100 0.0 SE 17 26 9 14 1019.3 1013.2 4.8
19/01:30pm 17.8 16.3 17.8 100 0.0 SSE 22 30 12 16 1019.3 1013.2 4.8
19/01:00pm 17.5 15.9 17.5 100 0.0 SSE 22 30 12 16 1019.0 1012.9 4.0
19/12:30pm 17.7 16.8 17.7 100 0.0 SE 19 24 10 13 1019.0 1012.9 1.4
19/12:24pm 18.0 17.1 17.8 99 0.1 SE 19 24 10 13 1019.0 1012.9 0.6
19/12:00pm 18.8 18.3 18.6 99 0.1 E 19 22 10 12 1019.0 1012.9 0.0
19/11:30am 18.8 18.3 18.6 99 0.1 ESE 19 24 10 13 1019.0 1012.9 0.0
19/11:00am 19.1 19.5 18.9 99 0.1 ESE 15 19 8 10 1019.0 1012.9 0.0
19/10:30am 19.0 19.3 18.8 99 0.1 ESE 15 20 8 11 1018.8 1012.7 0.0
19/10:00am 18.8 19.5 18.8 100 0.0 ESE 13 20 7 11 1018.7 1012.6 0.0
19/09:30am 17.9 18.2 17.9 100 0.0 E 13 17 7 9 1018.8 1012.7 0.0
19/09:00am 17.6 17.8 17.6 100 0.0 ESE 13 19 7 10 1018.9 1012.8 5.8
19/08:30am 17.5 17.6 17.5 100 0.0 E 13 19 7 10 1018.6 1012.5 5.8
19/08:21am 17.4 17.5 17.4 100 0.0 E 13 17 7 9 1018.5 1012.4 5.8
19/08:00am 17.2 16.8 17.2 100 0.0 E 15 19 8 10 1018.4 1012.3 5.8
19/07:49am 17.1 16.7 17.1 100 0.0 E 15 19 8 10 1017.5 1011.3 5.8
19/07:30am 17.2 17.2 17.2 100 0.0 ESE 13 17 7 9 1017.7 1011.6 5.8
19/07:11am 17.3 17.7 17.3 100 0.0 E 11 15 6 8 1017.5 1011.3 5.8
19/07:00am 17.3 17.3 17.3 100 0.0 E 13 15 7 8 1017.3 1011.1 5.8
19/06:32am 17.1 16.7 17.1 100 0.0 E 15 19 8 10 1016.7 1010.6 5.8
19/06:30am 17.1 16.7 17.1 100 0.0 E 15 19 8 10 1016.7 1010.6 5.8
19/06:00am 17.1 17.4 17.1 100 0.0 E 11 15 6 8 1016.6 1010.4 5.8
19/05:30am 17.1 16.7 17.1 100 0.0 E 15 19 8 10 1016.1 1010.0 5.8
19/05:00am 17.0 16.5 17.0 100 0.0 E 15 20 8 11 1015.9 1009.8 5.8
19/04:55am 17.0 16.5 17.0 100 0.0 ESE 15 20 8 11 1015.8 1009.7 5.8
19/04:42am 17.0 16.2 17.0 100 0.0 E 17 22 9 12 1015.6 1009.4 5.8
19/04:30am 17.0 16.5 17.0 100 0.0 E 15 20 8 11 1015.5 1009.3 5.8
19/04:00am 17.0 16.2 17.0 100 0.0 E 17 20 9 11 1015.1 1009.0 5.8
19/03:30am 16.9 15.5 16.9 100 0.0 E 20 28 11 15 1015.0 1008.9 5.8
19/03:00am 17.1 15.7 17.1 100 0.0 E 20 28 11 15 1015.3 1009.1 5.8
19/02:30am 17.2 16.1 17.2 100 0.0 E 19 24 10 13 1015.6 1009.4 5.8
19/02:00am 17.3 16.2 17.3 100 0.0 E 19 26 10 14 1015.8 1009.7 5.8
19/01:30am 17.3 16.0 17.3 100 0.0 E 20 28 11 15 1015.9 1009.8 5.8
19/01:00am 17.3 16.2 17.3 100 0.0 E 19 26 10 14 1016.3 1010.1 5.8
19/12:30am 17.3 16.0 17.3 100 0.0 E 20 28 11 15 1016.4 1010.2 5.6
19/12:00am 17.4 16.2 17.4 100 0.0 E 20 30 11 16 1016.6 1010.4 5.6
 
Date/Time
EDT
Temp
°C
App
Temp
°C
Dew
Point
°C
Rel
Hum
%
Delta-T
°C
Wind Press
QNH
hPa
Press
MSL
hPa
Rain since
9am
mm
Dir  Spd
km/h
Gust
km/h
Spd
kts
Gust
kts
18/11:30pm 17.6 15.3 17.6 100 0.0 E 26 37 14 20 1016.4 1010.2 5.6
18/11:00pm 17.8 15.6 17.8 100 0.0 E 26 35 14 19 1016.3 1010.1 5.6
18/10:30pm 18.0 16.6 18.0 100 0.0 E 22 30 12 16 1016.5 1010.3 5.6
18/10:00pm 18.1 17.7 18.1 100 0.0 ESE 17 22 9 12 1016.6 1010.4 5.6
18/09:30pm 18.2 18.6 18.2 100 0.0 SE 13 17 7 9 1016.5 1010.3 5.6
18/09:13pm 18.3 18.0 18.3 100 0.0 E 17 20 9 11 1016.1 1010.0 5.6
18/09:00pm 18.3 17.6 18.3 100 0.0 E 19 24 10 13 1015.6 1009.4 5.6
18/08:36pm 18.5 18.3 18.5 100 0.0 E 17 20 9 11 1015.7 1009.5 5.6
18/08:30pm 18.6 18.8 18.6 100 0.0 E 15 20 8 11 1015.8 1009.7 5.6
18/08:00pm 19.0 21.0 18.8 99 0.1 NNE 6 7 3 4 1016.4 1010.2 5.6
18/07:30pm 19.0 20.8 18.8 99 0.1 NNE 7 9 4 5 1016.4 1010.2 5.6
18/07:00pm 19.3 21.5 19.1 99 0.1 NNE 6 7 3 4 1016.0 1009.9 5.6
18/06:30pm 19.3 20.5 19.1 99 0.1 NE 11 13 6 7 1015.6 1009.4 5.6
18/06:03pm 19.4 21.0 19.2 99 0.1 ENE 9 13 5 7 1015.5 1009.3 5.6
18/06:00pm 19.4 21.0 19.2 99 0.1 ENE 9 13 5 7 1015.3 1009.1 5.6
18/05:50pm 19.3 20.9 19.1 99 0.1 ENE 9 13 5 7 1015.6 1009.4 5.6
18/05:30pm 19.5 20.8 19.3 99 0.1 ENE 11 17 6 9 1014.8 1008.6 5.6
18/05:00pm 19.3 19.7 19.1 99 0.1 ENE 15 20 8 11 1014.9 1008.7 5.6
18/04:30pm 19.6 20.6 19.4 99 0.1 ESE 13 19 7 10 1015.0 1008.9 5.6
18/04:09pm 19.2 20.0 19.0 99 0.1 ESE 13 20 7 11 1015.6 1009.4 5.4
18/04:00pm 18.8 20.3 18.8 100 0.0 ESE 9 13 5 7 1015.9 1009.8 5.4
18/03:30pm 18.3 20.4 18.1 99 0.1 SW 4 9 2 5 1016.4 1010.2 4.6
18/03:00pm 17.5 17.3 17.5 100 0.0 WSW 15 20 8 11 1016.8 1010.7 4.0
18/02:35pm 17.1 15.4 17.1 100 0.0 W 22 30 12 16 1016.9 1010.8 2.6
18/02:30pm 17.2 15.1 17.2 100 0.0 W 24 30 13 16 1016.9 1010.8 2.4
18/02:00pm 17.9 15.3 17.7 99 0.1 WNW 28 43 15 23 1017.1 1011.0 1.4
18/01:55pm 18.8 18.1 18.6 99 0.1 WNW 20 43 11 23 1017.3 1011.1 1.2
18/01:37pm 19.4 20.3 19.2 99 0.1 WNW 13 17 7 9 1016.1 1010.0 1.0
18/01:30pm 19.4 19.9 19.2 99 0.1 WNW 15 20 8 11 1016.1 1010.0 0.8
18/01:17pm 19.7 19.1 18.5 93 0.8 WNW 19 33 10 18 1016.3 1010.1 0.6
18/01:00pm 22.5 23.5 20.2 87 1.5 WSW 15 20 8 11 1016.4 1010.2 0.0
18/12:57pm 22.7 23.3 20.2 86 1.7 WSW 17 20 9 11 1016.5 1010.3 0.0
18/12:30pm 23.6 24.6 20.3 82 2.2 WSW 15 20 8 11 1016.5 1010.3 0.0
18/12:00pm 23.9 24.3 19.8 78 2.8 WSW 17 19 9 10 1016.7 1010.6 0.0
18/11:30am 23.9 23.9 19.0 74 3.3 W 17 20 9 11 1016.8 1010.7 0.0
18/11:00am 24.2 26.0 19.5 75 3.1 W 9 26 5 14 1016.9 1010.8 0.0
18/10:30am 25.8 26.5 15.5 53 6.5 NNW 6 9 3 5 1017.0 1010.9 0.0
18/10:00am 25.1 26.4 17.1 61 5.2 E 6 11 3 6 1017.4 1011.2 0.0
18/09:30am 24.1 26.4 17.6 67 4.2 NNE 2 7 1 4 1017.1 1011.0 0.0
18/09:00am 23.2 25.3 19.4 79 2.5 ENE 7 11 4 6 1016.9 1010.8 0.0
18/08:30am 22.1 24.5 19.6 86 1.7 ENE 6 9 3 5 1017.0 1010.9 0.0
18/08:00am 21.3 23.8 19.9 92 0.9 ENE 6 9 3 5 1016.9 1010.8 0.0
18/07:30am 19.8 22.0 19.6 99 0.1 ESE 7 9 4 5 1016.6 1010.4 0.0
18/07:00am 18.6 20.0 18.6 100 0.0 E 9 11 5 6 1016.1 1010.0 0.0
18/06:30am 17.7 18.3 17.7 100 0.0 E 11 13 6 7 1015.9 1009.8 0.0
18/06:00am 17.5 17.6 17.5 100 0.0 E 13 17 7 9 1015.6 1009.4 0.0
18/05:30am 17.7 17.9 17.7 100 0.0 E 13 15 7 8 1015.4 1009.2 0.0
18/05:00am 17.6 18.2 17.6 100 0.0 ENE 11 13 6 7 1015.3 1009.1 0.0
18/04:30am 17.9 18.6 17.9 100 0.0 ENE 11 13 6 7 1015.3 1009.1 0.0
18/04:00am 18.0 18.7 18.0 100 0.0 ENE 11 15 6 8 1015.5 1009.3 0.0
18/03:30am 18.3 18.8 18.3 100 0.0 ENE 13 15 7 8 1015.7 1009.5 0.0
18/03:00am 18.3 18.8 18.3 100 0.0 ENE 13 15 7 8 1015.8 1009.7 0.0
18/02:30am 18.4 18.9 18.4 100 0.0 ENE 13 15 7 8 1015.9 1009.8 0.0
18/02:00am 18.7 19.0 18.7 100 0.0 ENE 15 17 8 9 1016.3 1010.1 0.0
18/01:30am 18.9 19.6 18.9 100 0.0 E 13 15 7 8 1016.7 1010.6 0.0
18/01:00am 19.0 19.7 18.8 99 0.1 E 13 15 7 8 1016.8 1010.7 0.0
18/12:30am 19.2 19.6 19.0 99 0.1 E 15 19 8 10 1017.0 1010.9 0.0
18/12:00am 19.5 19.7 19.3 99 0.1 E 17 20 9 11 1016.8 1010.7 0.0
 
Date/Time
EDT
Temp
°C
App
Temp
°C
Dew
Point
°C
Rel
Hum
%
Delta-T
°C
Wind Press
QNH
hPa
Press
MSL
hPa
Rain since
9am
mm
Dir  Spd
km/h
Gust
km/h
Spd
kts
Gust
kts
17/11:30pm 19.8 20.1 19.6 99 0.1 E 17 20 9 11 1016.9 1010.8 0.0
17/11:00pm 20.1 20.5 19.9 99 0.1 ENE 17 20 9 11 1016.9 1010.8 0.0
17/10:30pm 20.3 20.5 20.1 99 0.1 ENE 19 24 10 13 1017.0 1010.9 0.0
17/10:00pm 20.6 20.9 20.4 99 0.1 E 19 24 10 13 1016.9 1010.8 0.0
17/09:30pm 21.1 21.5 20.6 97 0.3 E 19 24 10 13 1016.5 1010.3 0.0
17/09:00pm 21.7 21.9 20.5 93 0.8 E 20 26 11 14 1016.3 1010.1 0.0
17/08:30pm 22.2 22.5 20.5 90 1.1 E 19 24 10 13 1016.1 1010.0 0.0
17/08:00pm 23.4 23.4 19.8 80 2.4 E 19 24 10 13 1015.6 1009.4 0.0
17/07:30pm 24.5 23.9 18.4 69 4.0 ENE 19 28 10 15 1014.9 1008.7 0.0
17/07:00pm 26.0 25.9 18.7 64 4.9 E 17 22 9 12 1014.5 1008.3 0.0
17/06:30pm 29.1 30.7 14.9 42 9.0 CALM 0 7 0 4 1014.1 1008.0 0.0
17/06:00pm 28.8 29.3 13.9 40 9.3 N 4 9 2 5 1013.6 1007.4 0.0
17/05:30pm 28.9 28.9 14.3 40 9.2 SW 7 11 4 6 1013.8 1007.6 0.0
17/05:00pm 29.2 29.5 16.0 44 8.5 WSW 9 15 5 8 1013.7 1007.5 0.0
17/04:30pm 29.3 29.6 16.1 44 8.5 WNW 9 13 5 7 1013.9 1007.7 0.0
17/04:00pm 29.1 30.2 16.6 46 8.1 W 6 11 3 6 1014.0 1007.8 0.0
17/03:30pm 28.4 29.3 16.7 49 7.6 SW 7 13 4 7 1014.3 1008.1 0.0
17/03:00pm 27.8 27.9 16.4 50 7.4 SE 11 17 6 9 1014.4 1008.2 0.0
17/02:30pm 27.9 28.8 16.5 50 7.4 SSE 7 15 4 8 1014.5 1008.3 0.0
17/02:00pm 27.6 28.2 16.9 52 7.0 SW 9 15 5 8 1014.7 1008.5 0.0

Other formats

Comma delimited format used in spreadsheet applications
http://www.bom.gov.au/fwo/IDN60801/IDN60801.95773.axf

JavaScript Object Notation format (JSON) in row-major order
http://www.bom.gov.au/fwo/IDN60801/IDN60801.95773.json

Data quality

Most of these data are generated automatically and are frequently updated. Quality checks on data are not normally performed. It is possible for incorrect values to appear. Refer to information at About Latest Weather Observations and please check the disclaimer before using these data.